sensor_id;sensor_type;location;lat;lon;timestamp;pressure;altitude;pressure_sealevel;temperature;humidity
43488;BME280;29078;41.932;25.554;2023-04-23T00:01:22;99599.22;;;14.13;65.18
43488;BME280;29078;41.932;25.554;2023-04-23T00:03:56;99593.63;;;14.08;65.17
43488;BME280;29078;41.932;25.554;2023-04-23T00:06:22;99541.25;;;13.69;65.15
43488;BME280;29078;41.932;25.554;2023-04-23T00:08:52;99592.59;;;14.03;65.04
43488;BME280;29078;41.932;25.554;2023-04-23T00:11:18;99592.59;;;14.03;65.04
43488;BME280;29078;41.932;25.554;2023-04-23T00:13:43;99540.78;;;13.59;65.37
43488;BME280;29078;41.932;25.554;2023-04-23T00:16:11;99593.59;;;13.95;65.27
43488;BME280;29078;41.932;25.554;2023-04-23T00:18:37;99599.53;;;13.97;65.11
43488;BME280;29078;41.932;25.554;2023-04-23T00:21:02;99528.47;;;13.45;65.21
43488;BME280;29078;41.932;25.554;2023-04-23T00:23:28;99531.94;;;13.45;65.27
43488;BME280;29078;41.932;25.554;2023-04-23T00:25:53;99529.28;;;13.39;65.19
43488;BME280;29078;41.932;25.554;2023-04-23T00:28:19;99559.13;;;13.54;65.25
43488;BME280;29078;41.932;25.554;2023-04-23T00:30:45;99529.41;;;13.30;65.23
43488;BME280;29078;41.932;25.554;2023-04-23T00:33:10;99536.75;;;13.35;64.86
43488;BME280;29078;41.932;25.554;2023-04-23T00:35:35;99600.88;;;13.80;64.88
43488;BME280;29078;41.932;25.554;2023-04-23T00:38:01;99565.88;;;13.56;64.74
43488;BME280;29078;41.932;25.554;2023-04-23T00:40:26;99601.47;;;13.75;64.67
43488;BME280;29078;41.932;25.554;2023-04-23T00:42:52;99577.13;;;13.65;64.57
43488;BME280;29078;41.932;25.554;2023-04-23T00:45:18;99519.97;;;13.21;64.38
43488;BME280;29078;41.932;25.554;2023-04-23T00:47:44;99515.63;;;13.14;64.15
43488;BME280;29078;41.932;25.554;2023-04-23T00:50:10;99547.75;;;13.32;64.04
43488;BME280;29078;41.932;25.554;2023-04-23T00:52:37;99601.56;;;13.54;63.61
43488;BME280;29078;41.932;25.554;2023-04-23T00:55:05;99603.84;;;13.57;64.09
43488;BME280;29078;41.932;25.554;2023-04-23T00:57:31;99570.41;;;13.34;64.00
43488;BME280;29078;41.932;25.554;2023-04-23T00:59:56;99602.38;;;13.54;63.76
43488;BME280;29078;41.932;25.554;2023-04-23T01:02:24;99524.44;;;12.93;63.56
43488;BME280;29078;41.932;25.554;2023-04-23T01:04:52;99571.78;;;13.24;63.42
43488;BME280;29078;41.932;25.554;2023-04-23T01:07:19;99580.16;;;13.27;63.14
43488;BME280;29078;41.932;25.554;2023-04-23T01:09:45;99529.56;;;12.94;62.93
43488;BME280;29078;41.932;25.554;2023-04-23T01:12:11;99574.63;;;13.22;62.88
43488;BME280;29078;41.932;25.554;2023-04-23T01:14:37;99547.53;;;12.99;63.14
43488;BME280;29078;41.932;25.554;2023-04-23T01:17:03;99575.13;;;13.11;62.69
43488;BME280;29078;41.932;25.554;2023-04-23T01:19:30;99556.94;;;13.01;62.68
43488;BME280;29078;41.932;25.554;2023-04-23T01:21:56;99618.44;;;13.40;62.67
43488;BME280;29078;41.932;25.554;2023-04-23T01:24:25;99608.00;;;13.38;62.64
43488;BME280;29078;41.932;25.554;2023-04-23T01:26:52;99532.78;;;12.90;62.52
43488;BME280;29078;41.932;25.554;2023-04-23T01:29:18;99606.81;;;13.41;62.33
43488;BME280;29078;41.932;25.554;2023-04-23T01:31:44;99594.44;;;13.26;61.98
43488;BME280;29078;41.932;25.554;2023-04-23T01:34:10;99613.44;;;13.30;61.78
43488;BME280;29078;41.932;25.554;2023-04-23T01:36:36;99490.66;;;12.46;61.92
43488;BME280;29078;41.932;25.554;2023-04-23T01:39:02;99563.25;;;13.00;61.79
43488;BME280;29078;41.932;25.554;2023-04-23T01:41:27;99609.16;;;13.29;61.56
43488;BME280;29078;41.932;25.554;2023-04-23T01:43:52;99524.31;;;12.73;61.45
43488;BME280;29078;41.932;25.554;2023-04-23T01:46:19;99615.50;;;13.34;61.39
43488;BME280;29078;41.932;25.554;2023-04-23T01:48:45;99600.94;;;13.24;61.45
43488;BME280;29078;41.932;25.554;2023-04-23T01:51:11;99566.28;;;12.97;61.38
43488;BME280;29078;41.932;25.554;2023-04-23T01:53:36;99606.00;;;13.19;61.46
43488;BME280;29078;41.932;25.554;2023-04-23T01:56:02;99625.81;;;13.23;61.34
43488;BME280;29078;41.932;25.554;2023-04-23T01:58:29;99625.00;;;13.22;61.69
43488;BME280;29078;41.932;25.554;2023-04-23T02:00:54;99543.44;;;12.68;61.02
43488;BME280;29078;41.932;25.554;2023-04-23T02:03:20;99591.13;;;12.96;60.79
43488;BME280;29078;41.932;25.554;2023-04-23T02:05:46;99632.72;;;13.17;60.92
43488;BME280;29078;41.932;25.554;2023-04-23T02:08:12;99582.25;;;12.83;60.73
43488;BME280;29078;41.932;25.554;2023-04-23T02:10:37;99632.63;;;13.11;60.79
43488;BME280;29078;41.932;25.554;2023-04-23T02:13:03;99601.63;;;12.83;61.09
43488;BME280;29078;41.932;25.554;2023-04-23T02:15:29;99537.88;;;12.42;60.80
43488;BME280;29078;41.932;25.554;2023-04-23T02:17:54;99603.66;;;12.81;60.83
43488;BME280;29078;41.932;25.554;2023-04-23T02:20:20;99636.19;;;12.96;60.97
43488;BME280;29078;41.932;25.554;2023-04-23T02:22:47;99572.41;;;12.55;61.01
43488;BME280;29078;41.932;25.554;2023-04-23T02:25:14;99636.81;;;12.98;60.79
43488;BME280;29078;41.932;25.554;2023-04-23T02:27:41;99531.69;;;12.35;60.55
43488;BME280;29078;41.932;25.554;2023-04-23T02:30:07;99644.59;;;13.00;60.62
43488;BME280;29078;41.932;25.554;2023-04-23T02:32:34;99632.91;;;12.94;60.59
43488;BME280;29078;41.932;25.554;2023-04-23T02:35:00;99576.72;;;12.56;60.62
43488;BME280;29078;41.932;25.554;2023-04-23T02:37:26;99631.59;;;12.84;60.74
43488;BME280;29078;41.932;25.554;2023-04-23T02:39:52;99565.75;;;12.38;60.89
43488;BME280;29078;41.932;25.554;2023-04-23T02:42:17;99566.63;;;12.45;61.03
43488;BME280;29078;41.932;25.554;2023-04-23T02:44:43;99579.53;;;12.55;60.91
43488;BME280;29078;41.932;25.554;2023-04-23T02:47:08;99642.25;;;12.90;61.09
43488;BME280;29078;41.932;25.554;2023-04-23T02:49:33;99553.75;;;12.42;60.92
43488;BME280;29078;41.932;25.554;2023-04-23T02:51:59;99617.72;;;12.82;60.74
43488;BME280;29078;41.932;25.554;2023-04-23T02:54:25;99559.06;;;12.42;60.92
43488;BME280;29078;41.932;25.554;2023-04-23T02:56:50;99624.22;;;12.79;60.84
43488;BME280;29078;41.932;25.554;2023-04-23T02:59:15;99619.75;;;12.80;60.54
43488;BME280;29078;41.932;25.554;2023-04-23T03:01:41;99611.47;;;12.68;60.85
43488;BME280;29078;41.932;25.554;2023-04-23T03:04:06;99643.47;;;12.88;60.79
43488;BME280;29078;41.932;25.554;2023-04-23T03:06:32;99586.69;;;12.54;60.81
43488;BME280;29078;41.932;25.554;2023-04-23T03:09:00;99627.94;;;12.85;60.83
43488;BME280;29078;41.932;25.554;2023-04-23T03:11:25;99640.38;;;12.84;60.48
43488;BME280;29078;41.932;25.554;2023-04-23T03:13:50;99623.97;;;12.74;60.45
43488;BME280;29078;41.932;25.554;2023-04-23T03:16:16;99580.50;;;12.47;60.39
43488;BME280;29078;41.932;25.554;2023-04-23T03:18:41;99574.38;;;12.47;60.42
43488;BME280;29078;41.932;25.554;2023-04-23T03:21:07;99588.81;;;12.44;60.13
43488;BME280;29078;41.932;25.554;2023-04-23T03:23:32;99604.84;;;12.57;60.54
43488;BME280;29078;41.932;25.554;2023-04-23T03:25:57;99662.00;;;12.88;60.67
43488;BME280;29078;41.932;25.554;2023-04-23T03:28:23;99586.53;;;12.41;60.67
43488;BME280;29078;41.932;25.554;2023-04-23T03:30:48;99661.38;;;12.86;60.55
43488;BME280;29078;41.932;25.554;2023-04-23T03:33:14;99649.25;;;12.77;60.56
43488;BME280;29078;41.932;25.554;2023-04-23T03:35:39;99591.22;;;12.39;61.07
43488;BME280;29078;41.932;25.554;2023-04-23T03:38:05;99644.34;;;12.73;60.35
43488;BME280;29078;41.932;25.554;2023-04-23T03:40:30;99558.25;;;12.20;60.38
43488;BME280;29078;41.932;25.554;2023-04-23T03:42:56;99582.75;;;12.29;60.59
43488;BME280;29078;41.932;25.554;2023-04-23T03:45:22;99665.78;;;12.79;60.73
43488;BME280;29078;41.932;25.554;2023-04-23T03:47:47;99643.72;;;12.71;60.89
43488;BME280;29078;41.932;25.554;2023-04-23T03:50:13;99661.31;;;12.79;60.95
43488;BME280;29078;41.932;25.554;2023-04-23T03:52:38;99588.06;;;12.29;60.88
43488;BME280;29078;41.932;25.554;2023-04-23T03:55:04;99561.19;;;12.11;60.88
43488;BME280;29078;41.932;25.554;2023-04-23T03:57:30;99580.59;;;12.18;61.36
43488;BME280;29078;41.932;25.554;2023-04-23T03:59:55;99658.03;;;12.77;60.92
43488;BME280;29078;41.932;25.554;2023-04-23T04:02:21;99542.78;;;12.02;61.26
43488;BME280;29078;41.932;25.554;2023-04-23T04:04:46;99580.03;;;12.22;61.45
43488;BME280;29078;41.932;25.554;2023-04-23T04:07:14;99663.84;;;12.66;61.57
43488;BME280;29078;41.932;25.554;2023-04-23T04:09:39;99588.88;;;11.64;61.60
43488;BME280;29078;41.932;25.554;2023-04-23T04:12:05;99610.91;;;12.15;61.65
43488;BME280;29078;41.932;25.554;2023-04-23T04:14:31;99668.88;;;12.46;61.81
43488;BME280;29078;41.932;25.554;2023-04-23T04:16:57;99695.81;;;12.64;61.81
43488;BME280;29078;41.932;25.554;2023-04-23T04:19:22;99558.84;;;11.71;61.83
43488;BME280;29078;41.932;25.554;2023-04-23T04:21:48;99638.03;;;12.17;61.85
43488;BME280;29078;41.932;25.554;2023-04-23T04:24:14;99693.50;;;12.61;61.90
43488;BME280;29078;41.932;25.554;2023-04-23T04:26:39;99634.19;;;12.20;61.91
43488;BME280;29078;41.932;25.554;2023-04-23T04:29:05;99617.94;;;12.23;61.99
43488;BME280;29078;41.932;25.554;2023-04-23T04:31:31;99641.25;;;12.34;61.85
43488;BME280;29078;41.932;25.554;2023-04-23T04:33:56;99592.88;;;12.04;61.61
43488;BME280;29078;41.932;25.554;2023-04-23T04:36:23;99708.31;;;12.70;61.59
43488;BME280;29078;41.932;25.554;2023-04-23T04:38:52;99708.56;;;12.76;61.44
43488;BME280;29078;41.932;25.554;2023-04-23T04:41:21;99673.88;;;12.56;61.60
43488;BME280;29078;41.932;25.554;2023-04-23T04:43:47;99651.94;;;12.40;61.22
43488;BME280;29078;41.932;25.554;2023-04-23T04:46:13;99731.47;;;12.83;61.44
43488;BME280;29078;41.932;25.554;2023-04-23T04:48:39;99715.19;;;12.86;60.99
43488;BME280;29078;41.932;25.554;2023-04-23T04:51:05;99637.16;;;12.31;60.91
43488;BME280;29078;41.932;25.554;2023-04-23T04:53:30;99728.25;;;12.88;60.84
43488;BME280;29078;41.932;25.554;2023-04-23T04:55:55;99718.03;;;12.85;60.80
43488;BME280;29078;41.932;25.554;2023-04-23T04:58:21;99681.66;;;12.57;60.87
43488;BME280;29078;41.932;25.554;2023-04-23T05:00:46;99724.09;;;12.79;60.96
43488;BME280;29078;41.932;25.554;2023-04-23T05:03:19;99726.25;;;12.90;60.72
43488;BME280;29078;41.932;25.554;2023-04-23T05:05:45;99725.03;;;12.92;60.38
43488;BME280;29078;41.932;25.554;2023-04-23T05:08:11;99720.56;;;12.93;60.28
43488;BME280;29078;41.932;25.554;2023-04-23T05:10:37;99630.81;;;12.47;59.97
43488;BME280;29078;41.932;25.554;2023-04-23T05:13:02;99667.94;;;12.68;60.07
43488;BME280;29078;41.932;25.554;2023-04-23T05:15:28;99668.75;;;12.69;59.68
43488;BME280;29078;41.932;25.554;2023-04-23T05:17:53;99635.09;;;12.48;59.64
43488;BME280;29078;41.932;25.554;2023-04-23T05:20:19;99672.41;;;12.68;59.38
43488;BME280;29078;41.932;25.554;2023-04-23T05:22:45;99712.03;;;12.97;59.30
43488;BME280;29078;41.932;25.554;2023-04-23T05:25:11;99723.09;;;13.01;59.07
43488;BME280;29078;41.932;25.554;2023-04-23T05:27:37;99724.03;;;13.15;59.07
43488;BME280;29078;41.932;25.554;2023-04-23T05:30:04;99686.94;;;12.93;59.23
43488;BME280;29078;41.932;25.554;2023-04-23T05:32:30;99651.47;;;12.73;59.25
43488;BME280;29078;41.932;25.554;2023-04-23T05:34:56;99716.66;;;13.10;58.98
43488;BME280;29078;41.932;25.554;2023-04-23T05:37:21;99732.81;;;13.36;59.01
43488;BME280;29078;41.932;25.554;2023-04-23T05:39:47;99696.69;;;13.14;59.12
43488;BME280;29078;41.932;25.554;2023-04-23T05:42:12;99672.84;;;12.93;58.88
43488;BME280;29078;41.932;25.554;2023-04-23T05:44:38;99749.00;;;13.42;58.80
43488;BME280;29078;41.932;25.554;2023-04-23T05:47:06;99739.22;;;13.42;58.48
43488;BME280;29078;41.932;25.554;2023-04-23T05:49:31;99734.97;;;13.48;58.69
43488;BME280;29078;41.932;25.554;2023-04-23T05:51:57;99680.16;;;13.12;58.47
43488;BME280;29078;41.932;25.554;2023-04-23T05:54:23;99723.13;;;13.44;58.27
43488;BME280;29078;41.932;25.554;2023-04-23T05:56:48;99724.75;;;13.45;58.49
43488;BME280;29078;41.932;25.554;2023-04-23T05:59:14;99723.34;;;13.49;58.36
43488;BME280;29078;41.932;25.554;2023-04-23T06:01:39;99682.56;;;13.28;58.14
43488;BME280;29078;41.932;25.554;2023-04-23T06:04:06;99738.84;;;13.73;57.75
43488;BME280;29078;41.932;25.554;2023-04-23T06:06:31;99690.06;;;13.46;57.65
43488;BME280;29078;41.932;25.554;2023-04-23T06:08:57;99721.91;;;13.74;57.36
43488;BME280;29078;41.932;25.554;2023-04-23T06:11:22;99681.53;;;13.51;57.19
43488;BME280;29078;41.932;25.554;2023-04-23T06:13:48;99602.22;;;13.07;57.07
43488;BME280;29078;41.932;25.554;2023-04-23T06:16:14;99613.38;;;13.23;56.92
43488;BME280;29078;41.932;25.554;2023-04-23T06:18:39;99740.50;;;14.09;56.76
43488;BME280;29078;41.932;25.554;2023-04-23T06:21:05;99668.13;;;13.59;56.33
43488;BME280;29078;41.932;25.554;2023-04-23T06:23:31;99697.88;;;13.82;56.20
43488;BME280;29078;41.932;25.554;2023-04-23T06:25:57;99638.34;;;13.63;55.74
43488;BME280;29078;41.932;25.554;2023-04-23T06:28:22;99740.19;;;14.25;54.96
43488;BME280;29078;41.932;25.554;2023-04-23T06:30:48;99719.06;;;14.10;55.05
43488;BME280;29078;41.932;25.554;2023-04-23T06:33:13;99744.09;;;14.29;54.99
43488;BME280;29078;41.932;25.554;2023-04-23T06:35:40;99738.00;;;14.35;54.77
43488;BME280;29078;41.932;25.554;2023-04-23T06:38:05;99684.91;;;14.00;54.70
43488;BME280;29078;41.932;25.554;2023-04-23T06:40:32;99656.88;;;13.91;54.72
43488;BME280;29078;41.932;25.554;2023-04-23T06:42:57;99687.50;;;14.28;54.60
43488;BME280;29078;41.932;25.554;2023-04-23T06:45:23;99724.63;;;14.56;54.37
43488;BME280;29078;41.932;25.554;2023-04-23T06:47:48;99702.94;;;14.46;54.07
43488;BME280;29078;41.932;25.554;2023-04-23T06:50:14;99693.72;;;14.42;53.47
43488;BME280;29078;41.932;25.554;2023-04-23T06:52:40;99760.94;;;14.90;53.40
43488;BME280;29078;41.932;25.554;2023-04-23T06:55:06;99663.84;;;14.40;52.63
43488;BME280;29078;41.932;25.554;2023-04-23T06:57:31;99656.88;;;14.32;51.90
43488;BME280;29078;41.932;25.554;2023-04-23T06:59:57;99720.03;;;14.91;52.01
43488;BME280;29078;41.932;25.554;2023-04-23T07:02:22;99658.81;;;14.58;51.69
43488;BME280;29078;41.932;25.554;2023-04-23T07:04:47;99705.53;;;15.01;51.80
43488;BME280;29078;41.932;25.554;2023-04-23T07:07:13;99649.84;;;14.73;51.77
43488;BME280;29078;41.932;25.554;2023-04-23T07:09:38;99681.81;;;14.99;51.82
43488;BME280;29078;41.932;25.554;2023-04-23T07:12:04;99696.75;;;15.13;51.65
43488;BME280;29078;41.932;25.554;2023-04-23T07:14:31;99751.19;;;15.57;51.07
43488;BME280;29078;41.932;25.554;2023-04-23T07:16:56;99732.56;;;15.50;51.21
43488;BME280;29078;41.932;25.554;2023-04-23T07:19:22;99724.19;;;15.47;50.86
43488;BME280;29078;41.932;25.554;2023-04-23T07:21:48;99689.38;;;15.29;50.84
43488;BME280;29078;41.932;25.554;2023-04-23T07:24:13;99624.75;;;14.95;50.49
43488;BME280;29078;41.932;25.554;2023-04-23T07:26:39;99697.78;;;15.39;50.81
43488;BME280;29078;41.932;25.554;2023-04-23T07:29:05;99770.28;;;15.87;50.29
43488;BME280;29078;41.932;25.554;2023-04-23T07:31:32;99689.38;;;15.48;49.77
43488;BME280;29078;41.932;25.554;2023-04-23T07:33:57;99727.50;;;15.69;49.80
43488;BME280;29078;41.932;25.554;2023-04-23T07:36:23;99696.31;;;15.56;49.95
43488;BME280;29078;41.932;25.554;2023-04-23T07:38:48;99677.72;;;15.49;49.75
43488;BME280;29078;41.932;25.554;2023-04-23T07:41:15;99756.31;;;16.11;49.56
43488;BME280;29078;41.932;25.554;2023-04-23T07:43:41;99761.41;;;16.19;49.17
43488;BME280;29078;41.932;25.554;2023-04-23T07:46:07;99701.03;;;15.94;49.24
43488;BME280;29078;41.932;25.554;2023-04-23T07:48:32;99713.31;;;16.01;48.30
43488;BME280;29078;41.932;25.554;2023-04-23T07:51:01;99743.53;;;16.27;47.88
43488;BME280;29078;41.932;25.554;2023-04-23T07:53:27;99715.53;;;16.11;48.07
43488;BME280;29078;41.932;25.554;2023-04-23T07:55:55;99698.94;;;16.02;47.87
43488;BME280;29078;41.932;25.554;2023-04-23T07:58:22;99627.78;;;15.71;47.50
43488;BME280;29078;41.932;25.554;2023-04-23T08:00:47;99681.31;;;16.08;47.02
43488;BME280;29078;41.932;25.554;2023-04-23T08:03:13;99663.03;;;16.18;46.94
43488;BME280;29078;41.932;25.554;2023-04-23T08:05:38;99684.91;;;16.33;46.29
43488;BME280;29078;41.932;25.554;2023-04-23T08:08:05;99689.84;;;16.30;45.76
43488;BME280;29078;41.932;25.554;2023-04-23T08:10:31;99751.56;;;16.84;45.88
43488;BME280;29078;41.932;25.554;2023-04-23T08:12:56;99744.97;;;16.87;45.79
43488;BME280;29078;41.932;25.554;2023-04-23T08:15:22;99756.59;;;16.99;45.41
43488;BME280;29078;41.932;25.554;2023-04-23T08:17:47;99720.13;;;16.93;45.42
43488;BME280;29078;41.932;25.554;2023-04-23T08:20:13;99718.19;;;17.07;45.47
43488;BME280;29078;41.932;25.554;2023-04-23T08:22:38;99703.41;;;17.11;44.76
43488;BME280;29078;41.932;25.554;2023-04-23T08:25:04;99722.09;;;17.36;44.69
43488;BME280;29078;41.932;25.554;2023-04-23T08:27:29;99700.16;;;17.34;44.66
43488;BME280;29078;41.932;25.554;2023-04-23T08:29:55;99692.84;;;17.47;44.46
43488;BME280;29078;41.932;25.554;2023-04-23T08:32:20;99749.88;;;17.85;44.45
43488;BME280;29078;41.932;25.554;2023-04-23T08:34:46;99721.00;;;17.93;44.17
43488;BME280;29078;41.932;25.554;2023-04-23T08:37:11;99684.75;;;17.79;43.79
43488;BME280;29078;41.932;25.554;2023-04-23T08:39:37;99666.28;;;17.77;43.67
43488;BME280;29078;41.932;25.554;2023-04-23T08:42:12;99681.69;;;18.00;43.68
43488;BME280;29078;41.932;25.554;2023-04-23T08:44:40;99734.22;;;18.43;43.26
43488;BME280;29078;41.932;25.554;2023-04-23T08:47:09;99658.38;;;18.07;42.68
43488;BME280;29078;41.932;25.554;2023-04-23T08:49:40;99729.72;;;18.62;42.66
43488;BME280;29078;41.932;25.554;2023-04-23T08:52:15;99692.19;;;18.50;42.33
43488;BME280;29078;41.932;25.554;2023-04-23T08:54:49;99694.41;;;18.71;42.12
43488;BME280;29078;41.932;25.554;2023-04-23T08:57:17;99658.09;;;18.64;41.46
43488;BME280;29078;41.932;25.554;2023-04-23T08:59:44;99716.63;;;19.14;41.47
43488;BME280;29078;41.932;25.554;2023-04-23T09:02:11;99712.84;;;19.33;41.12
43488;BME280;29078;41.932;25.554;2023-04-23T09:04:38;99704.03;;;19.44;41.01
43488;BME280;29078;41.932;25.554;2023-04-23T09:07:05;99713.84;;;19.74;40.80
43488;BME280;29078;41.932;25.554;2023-04-23T09:09:36;99702.41;;;19.90;40.39
43488;BME280;29078;41.932;25.554;2023-04-23T09:12:03;99711.97;;;20.09;40.03
43488;BME280;29078;41.932;25.554;2023-04-23T09:14:29;99634.84;;;19.88;39.77
43488;BME280;29078;41.932;25.554;2023-04-23T09:16:55;99696.88;;;20.31;39.49
43488;BME280;29078;41.932;25.554;2023-04-23T09:19:21;99713.97;;;20.54;39.17
43488;BME280;29078;41.932;25.554;2023-04-23T09:21:47;99642.00;;;20.22;38.81
43488;BME280;29078;41.932;25.554;2023-04-23T09:24:12;99706.78;;;20.71;38.32
43488;BME280;29078;41.932;25.554;2023-04-23T09:26:45;99702.66;;;20.80;37.42
43488;BME280;29078;41.932;25.554;2023-04-23T09:29:13;99638.09;;;20.42;36.71
43488;BME280;29078;41.932;25.554;2023-04-23T09:31:42;99614.41;;;20.39;36.42
43488;BME280;29078;41.932;25.554;2023-04-23T09:34:07;99617.56;;;20.47;35.68
43488;BME280;29078;41.932;25.554;2023-04-23T09:36:33;99698.38;;;21.24;35.79
43488;BME280;29078;41.932;25.554;2023-04-23T09:39:01;99689.91;;;21.49;35.66
43488;BME280;29078;41.932;25.554;2023-04-23T09:41:27;99659.41;;;21.55;35.35
43488;BME280;29078;41.932;25.554;2023-04-23T09:43:54;99626.00;;;21.51;35.14
43488;BME280;29078;41.932;25.554;2023-04-23T09:46:36;99683.59;;;21.94;34.87
43488;BME280;29078;41.932;25.554;2023-04-23T09:49:03;99659.88;;;21.91;34.92
43488;BME280;29078;41.932;25.554;2023-04-23T09:51:34;99634.63;;;21.20;34.96
43488;BME280;29078;41.932;25.554;2023-04-23T09:54:01;99587.53;;;20.96;35.14
43488;BME280;29078;41.932;25.554;2023-04-23T09:56:30;99674.94;;;21.70;35.04
43488;BME280;29078;41.932;25.554;2023-04-23T09:58:56;99683.34;;;21.96;34.83
43488;BME280;29078;41.932;25.554;2023-04-23T10:01:28;99670.38;;;22.31;34.75
43488;BME280;29078;41.932;25.554;2023-04-23T10:03:55;99594.81;;;21.89;34.04
43488;BME280;29078;41.932;25.554;2023-04-23T10:06:29;99637.66;;;22.17;33.93
43488;BME280;29078;41.932;25.554;2023-04-23T10:08:56;99673.09;;;22.58;33.64
43488;BME280;29078;41.932;25.554;2023-04-23T10:11:23;99659.53;;;22.48;33.49
43488;BME280;29078;41.932;25.554;2023-04-23T10:13:49;99661.44;;;22.04;33.96
43488;BME280;29078;41.932;25.554;2023-04-23T10:16:15;99616.03;;;21.30;34.56
43488;BME280;29078;41.932;25.554;2023-04-23T10:18:42;99592.16;;;20.67;34.96
43488;BME280;29078;41.932;25.554;2023-04-23T10:21:09;99625.78;;;21.19;34.86
43488;BME280;29078;41.932;25.554;2023-04-23T10:23:37;99644.97;;;21.62;34.20
43488;BME280;29078;41.932;25.554;2023-04-23T10:26:03;99621.00;;;21.77;33.74
43488;BME280;29078;41.932;25.554;2023-04-23T10:28:30;99581.75;;;21.20;34.10
43488;BME280;29078;41.932;25.554;2023-04-23T10:30:58;99573.34;;;21.50;33.93
43488;BME280;29078;41.932;25.554;2023-04-23T10:33:25;99630.72;;;22.22;33.74
43488;BME280;29078;41.932;25.554;2023-04-23T10:35:53;99553.72;;;22.15;33.39
43488;BME280;29078;41.932;25.554;2023-04-23T10:38:19;99594.56;;;22.61;33.25
43488;BME280;29078;41.932;25.554;2023-04-23T10:40:48;99626.81;;;23.15;32.76
43488;BME280;29078;41.932;25.554;2023-04-23T10:43:15;99550.31;;;23.11;31.91
43488;BME280;29078;41.932;25.554;2023-04-23T10:45:42;99572.06;;;23.52;31.34
43488;BME280;29078;41.932;25.554;2023-04-23T10:48:07;99568.09;;;23.59;31.07
43488;BME280;29078;41.932;25.554;2023-04-23T10:50:36;99561.09;;;23.58;30.70
43488;BME280;29078;41.932;25.554;2023-04-23T10:53:02;99600.91;;;23.93;30.25
43488;BME280;29078;41.932;25.554;2023-04-23T10:55:31;99593.66;;;24.04;29.60
43488;BME280;29078;41.932;25.554;2023-04-23T10:57:59;99553.72;;;23.96;30.08
43488;BME280;29078;41.932;25.554;2023-04-23T11:00:26;99505.41;;;23.79;30.14
43488;BME280;29078;41.932;25.554;2023-04-23T11:02:51;99602.19;;;24.53;29.95
43488;BME280;29078;41.932;25.554;2023-04-23T11:05:17;99604.63;;;24.80;29.41
43488;BME280;29078;41.932;25.554;2023-04-23T11:08:01;99591.94;;;24.91;29.19
43488;BME280;29078;41.932;25.554;2023-04-23T11:10:27;99544.38;;;24.39;29.25
43488;BME280;29078;41.932;25.554;2023-04-23T11:12:54;99549.41;;;24.00;29.38
43488;BME280;29078;41.932;25.554;2023-04-23T11:15:20;99544.41;;;23.61;29.94
43488;BME280;29078;41.932;25.554;2023-04-23T11:20:13;99597.25;;;23.67;29.35
43488;BME280;29078;41.932;25.554;2023-04-23T11:22:43;99544.22;;;22.94;29.75
43488;BME280;29078;41.932;25.554;2023-04-23T11:25:11;99554.75;;;22.63;30.05
43488;BME280;29078;41.932;25.554;2023-04-23T11:27:38;99587.44;;;23.09;29.97
43488;BME280;29078;41.932;25.554;2023-04-23T11:30:21;99575.31;;;23.49;29.58
43488;BME280;29078;41.932;25.554;2023-04-23T11:32:52;99583.13;;;24.02;29.00
43488;BME280;29078;41.932;25.554;2023-04-23T11:35:20;99498.94;;;23.90;28.76
43488;BME280;29078;41.932;25.554;2023-04-23T11:37:46;99584.38;;;24.78;28.24
43488;BME280;29078;41.932;25.554;2023-04-23T11:40:16;99543.84;;;24.93;28.21
43488;BME280;29078;41.932;25.554;2023-04-23T11:42:46;99374.28;;;23.53;27.49
43488;BME280;29078;41.932;25.554;2023-04-23T11:45:21;99539.00;;;24.75;27.62
43488;BME280;29078;41.932;25.554;2023-04-23T11:47:49;99567.59;;;25.26;27.29
43488;BME280;29078;41.932;25.554;2023-04-23T11:50:19;99561.94;;;25.38;26.51
43488;BME280;29078;41.932;25.554;2023-04-23T11:52:45;99493.06;;;25.10;26.21
43488;BME280;29078;41.932;25.554;2023-04-23T11:55:12;99561.25;;;25.82;26.14
43488;BME280;29078;41.932;25.554;2023-04-23T11:57:42;99525.59;;;25.64;25.61
43488;BME280;29078;41.932;25.554;2023-04-23T12:00:17;99560.41;;;25.91;25.37
43488;BME280;29078;41.932;25.554;2023-04-23T12:03:01;99491.59;;;25.48;25.10
43488;BME280;29078;41.932;25.554;2023-04-23T12:07:53;99554.34;;;26.15;25.19
43488;BME280;29078;41.932;25.554;2023-04-23T12:10:19;99549.50;;;26.12;25.72
43488;BME280;29078;41.932;25.554;2023-04-23T12:12:49;99541.91;;;25.39;26.50
43488;BME280;29078;41.932;25.554;2023-04-23T12:15:15;99474.19;;;24.19;27.39
43488;BME280;29078;41.932;25.554;2023-04-23T12:17:41;99533.50;;;24.08;27.68
43488;BME280;29078;41.932;25.554;2023-04-23T12:20:09;99547.41;;;23.75;27.96
43488;BME280;29078;41.932;25.554;2023-04-23T12:22:37;99471.25;;;22.90;28.49
43488;BME280;29078;41.932;25.554;2023-04-23T12:25:04;99534.69;;;23.13;28.78
43488;BME280;29078;41.932;25.554;2023-04-23T12:27:32;99459.16;;;22.56;28.97
43488;BME280;29078;41.932;25.554;2023-04-23T12:30:03;99524.88;;;22.97;28.79
43488;BME280;29078;41.932;25.554;2023-04-23T12:32:28;99463.03;;;22.75;28.67
43488;BME280;29078;41.932;25.554;2023-04-23T12:34:54;99531.19;;;23.60;28.19
43488;BME280;29078;41.932;25.554;2023-04-23T12:37:27;99494.88;;;23.83;27.47
43488;BME280;29078;41.932;25.554;2023-04-23T12:39:53;99532.47;;;24.25;27.38
43488;BME280;29078;41.932;25.554;2023-04-23T12:42:21;99490.34;;;24.08;27.26
43488;BME280;29078;41.932;25.554;2023-04-23T12:44:46;99512.00;;;24.39;26.91
43488;BME280;29078;41.932;25.554;2023-04-23T12:47:12;99429.91;;;23.94;26.41
43488;BME280;29078;41.932;25.554;2023-04-23T12:49:40;99502.31;;;24.63;26.40
43488;BME280;29078;41.932;25.554;2023-04-23T12:52:07;99506.63;;;24.75;25.72